LJAJ weather

Ajdovščina Airfield
Ajdovscina, Ajdovscina, Slovenia

Public forecast

Using degrees Celsius for public forecast. Weather courtesy of forecast.io.

Closest aviation weather report (METAR) to Ajdovščina Airfield

Closest report is Trieste–Friuli Venezia Giulia Airport, 17.7 nm (32.8 km) WSW. Retrieved 2020/06/02 23:50 UTC (32 minutes ago):

LIPQ 022350Z AUTO 02003KT 280V040 9999 FEW094 14/13 Q1011

Closest aviation forecast (TAF) to Ajdovščina Airfield

Closest forecast is Trieste–Friuli Venezia Giulia Airport, 17.7 nm (32.8 km) WSW. Retrieved 2020-06-03 00:21 UTC (41 seconds ago):

TAF LIPQ 022300Z 0300/0324 VRB05KT 9999 FEW060